createdAt,value
2022-07-26T00:01:48.847Z,63.96
2022-07-26T00:04:16.605Z,63.96
2022-07-26T00:06:44.341Z,63.91
2022-07-26T00:09:11.960Z,63.97
2022-07-26T00:11:39.624Z,63.98
2022-07-26T00:14:09.377Z,63.75
2022-07-26T00:16:37.868Z,63.69
2022-07-26T00:19:08.072Z,63.78
2022-07-26T00:21:37.423Z,63.85
2022-07-26T00:24:08.852Z,63.69
2022-07-26T00:26:36.552Z,63.66
2022-07-26T00:29:05.254Z,63.53
2022-07-26T00:31:33.068Z,63.84
2022-07-26T00:34:00.742Z,63.82
2022-07-26T00:36:29.168Z,63.84
2022-07-26T00:38:56.725Z,63.55
2022-07-26T00:41:24.278Z,63.76
2022-07-26T00:44:00.206Z,63.95
2022-07-26T00:46:28.077Z,63.86
2022-07-26T00:48:55.842Z,63.98
2022-07-26T00:51:23.910Z,63.80
2022-07-26T00:53:51.463Z,64.45
2022-07-26T00:56:22.549Z,64.33
2022-07-26T00:58:50.262Z,64.45
2022-07-26T01:01:17.874Z,64.17
2022-07-26T01:03:45.676Z,64.27
2022-07-26T01:06:16.146Z,64.47
2022-07-26T01:08:44.069Z,64.27
2022-07-26T01:11:11.668Z,64.27
2022-07-26T01:13:49.622Z,64.49
2022-07-26T01:16:18.126Z,64.41
2022-07-26T01:18:45.711Z,64.21
2022-07-26T01:21:14.327Z,64.80
2022-07-26T01:23:44.038Z,64.75
2022-07-26T01:26:12.049Z,64.85
2022-07-26T01:28:41.191Z,64.87
2022-07-26T01:31:09.230Z,64.95
2022-07-26T01:33:37.015Z,64.83
2022-07-26T01:36:04.700Z,64.91
2022-07-26T01:38:32.210Z,64.99
2022-07-26T01:40:59.805Z,65.17
2022-07-26T01:43:27.973Z,64.77
2022-07-26T01:45:55.601Z,65.08
2022-07-26T01:48:23.431Z,65.31
2022-07-26T01:50:51.032Z,65.30
2022-07-26T01:53:18.787Z,65.72
2022-07-26T01:55:46.356Z,65.81
2022-07-26T01:58:13.953Z,66.10
2022-07-26T02:00:41.662Z,66.26
2022-07-26T02:03:09.555Z,66.82
2022-07-26T02:05:37.196Z,66.77
2022-07-26T02:08:05.142Z,66.61
2022-07-26T02:10:51.034Z,66.11
2022-07-26T02:13:19.169Z,66.17
2022-07-26T02:15:46.818Z,66.09
2022-07-26T02:18:14.431Z,66.22
2022-07-26T02:20:41.980Z,66.03
2022-07-26T02:23:09.527Z,65.97
2022-07-26T02:25:37.157Z,65.76
2022-07-26T02:28:04.844Z,65.58
2022-07-26T02:30:32.486Z,65.65
2022-07-26T02:33:01.311Z,65.87
2022-07-26T02:35:28.946Z,65.87
2022-07-26T02:37:56.470Z,65.67
2022-07-26T02:40:23.989Z,65.69
2022-07-26T02:42:51.634Z,65.73
2022-07-26T02:45:19.280Z,65.71
2022-07-26T02:47:51.021Z,65.47
2022-07-26T02:50:19.833Z,65.63
2022-07-26T02:52:48.596Z,65.54
2022-07-26T02:55:17.331Z,65.77
2022-07-26T02:57:46.881Z,65.32
2022-07-26T03:00:17.503Z,64.53
2022-07-26T03:02:45.295Z,63.70
2022-07-26T03:05:12.973Z,62.83
2022-07-26T03:07:40.671Z,61.69
2022-07-26T03:10:09.115Z,61.51
2022-07-26T03:12:38.307Z,61.00
2022-07-26T03:15:07.038Z,59.74
2022-07-26T03:17:34.621Z,59.14
2022-07-26T03:20:02.875Z,57.77
2022-07-26T03:22:31.284Z,56.79
2022-07-26T03:24:59.130Z,56.39
2022-07-26T03:27:26.623Z,55.37
2022-07-26T03:29:54.157Z,54.95
2022-07-26T03:32:21.735Z,55.04
2022-07-26T03:34:49.259Z,54.83
2022-07-26T03:37:18.112Z,54.95
2022-07-26T03:39:45.755Z,54.46
2022-07-26T03:42:13.338Z,53.75
2022-07-26T03:44:41.127Z,53.00
2022-07-26T03:47:08.815Z,52.33
2022-07-26T03:49:36.426Z,51.89
2022-07-26T03:52:04.396Z,51.83
2022-07-26T03:54:32.035Z,51.57
2022-07-26T03:56:59.512Z,50.55
2022-07-26T03:59:27.666Z,50.11
2022-07-26T04:01:58.150Z,49.18
2022-07-26T04:04:26.585Z,49.37
2022-07-26T04:06:55.262Z,48.91
2022-07-26T04:09:24.298Z,48.47
2022-07-26T04:11:51.826Z,47.67
2022-07-26T04:14:19.360Z,46.28
2022-07-26T04:16:47.014Z,46.54
2022-07-26T04:19:14.608Z,46.01
2022-07-26T04:21:42.114Z,45.77
2022-07-26T04:24:10.662Z,45.10
2022-07-26T04:26:38.502Z,45.03
2022-07-26T04:29:06.020Z,44.99
2022-07-26T04:31:36.383Z,44.73
2022-07-26T04:34:04.243Z,44.93
2022-07-26T04:36:31.998Z,44.76
2022-07-26T04:38:59.440Z,44.41
2022-07-26T04:41:27.022Z,43.81
2022-07-26T04:43:54.517Z,43.22
2022-07-26T04:46:22.129Z,42.80
2022-07-26T04:48:49.673Z,42.54
2022-07-26T04:51:17.257Z,42.53
2022-07-26T04:53:44.757Z,42.56
2022-07-26T04:56:12.454Z,41.60
2022-07-26T04:58:40.116Z,42.15
2022-07-26T05:01:10.455Z,41.62
2022-07-26T05:03:39.407Z,40.66
2022-07-26T05:06:07.240Z,40.08
2022-07-26T05:08:34.810Z,40.16
2022-07-26T05:11:02.475Z,39.88
2022-07-26T05:13:31.055Z,39.53
2022-07-26T05:16:00.150Z,38.70
2022-07-26T05:18:31.486Z,37.98
2022-07-26T05:20:59.720Z,37.55
2022-07-26T05:23:27.985Z,37.01
2022-07-26T05:25:56.652Z,36.41
2022-07-26T05:28:24.174Z,36.41
2022-07-26T05:30:52.033Z,36.11
2022-07-26T05:33:19.859Z,36.02
2022-07-26T05:35:47.462Z,36.58
2022-07-26T05:38:15.046Z,35.92
2022-07-26T05:40:47.212Z,36.20
2022-07-26T05:43:18.563Z,35.71
2022-07-26T05:45:46.251Z,35.17
2022-07-26T05:48:14.253Z,35.07
2022-07-26T05:50:44.217Z,35.03
2022-07-26T05:53:11.753Z,34.27
2022-07-26T05:55:39.281Z,33.72
2022-07-26T05:58:06.912Z,33.39
2022-07-26T06:00:34.666Z,33.14
2022-07-26T06:03:22.274Z,33.41
2022-07-26T06:05:54.827Z,33.07
2022-07-26T06:08:23.020Z,33.40
2022-07-26T06:10:51.298Z,34.20
2022-07-26T06:13:19.162Z,34.87
2022-07-26T06:15:47.393Z,34.75
2022-07-26T06:18:15.045Z,34.27
2022-07-26T06:20:45.031Z,33.77
2022-07-26T06:23:13.450Z,34.25
2022-07-26T06:25:41.244Z,33.81
2022-07-26T06:28:10.659Z,32.94
2022-07-26T06:30:39.515Z,32.50
2022-07-26T06:33:08.089Z,32.25
2022-07-26T06:35:37.437Z,32.01
2022-07-26T06:38:07.237Z,32.27
2022-07-26T06:40:35.539Z,31.94
2022-07-26T06:43:04.653Z,31.62
2022-07-26T06:45:33.414Z,31.09
2022-07-26T06:48:00.989Z,30.76
2022-07-26T06:50:28.699Z,30.09
2022-07-26T06:52:56.418Z,29.43
2022-07-26T06:55:24.928Z,29.53
2022-07-26T06:57:52.467Z,29.53
2022-07-26T07:00:20.280Z,29.19
2022-07-26T07:02:47.938Z,28.93
2022-07-26T07:05:15.570Z,29.16
2022-07-26T07:07:43.870Z,29.12
2022-07-26T07:10:12.735Z,28.57
2022-07-26T07:12:40.893Z,28.57
2022-07-26T07:15:08.834Z,27.85
2022-07-26T07:17:36.495Z,27.74
2022-07-26T07:20:05.655Z,27.64
2022-07-26T07:22:33.310Z,28.07
2022-07-26T07:25:01.173Z,27.64
2022-07-26T07:27:31.072Z,27.49
2022-07-26T07:29:58.616Z,27.77
2022-07-26T07:32:26.311Z,28.02
2022-07-26T07:34:53.995Z,27.54
2022-07-26T07:37:21.720Z,27.33
2022-07-26T07:39:51.029Z,26.62
2022-07-26T07:42:19.782Z,27.13
2022-07-26T07:44:47.809Z,27.30
2022-07-26T07:47:15.659Z,27.51
2022-07-26T07:49:43.838Z,27.85
2022-07-26T07:52:11.497Z,27.66
2022-07-26T07:54:39.634Z,27.47
2022-07-26T07:57:07.778Z,28.26
2022-07-26T07:59:39.030Z,28.08
2022-07-26T08:02:07.638Z,28.58
2022-07-26T08:04:35.614Z,28.22
2022-07-26T08:07:04.703Z,27.87
2022-07-26T08:09:33.737Z,27.74
2022-07-26T08:12:02.185Z,27.39
2022-07-26T08:14:29.974Z,27.33
2022-07-26T08:16:57.975Z,26.94
2022-07-26T08:19:27.574Z,27.54
2022-07-26T08:22:09.435Z,27.15
2022-07-26T08:24:37.334Z,27.29
2022-07-26T08:27:05.282Z,27.13
2022-07-26T08:29:32.881Z,26.63
2022-07-26T08:32:00.813Z,26.30
2022-07-26T08:34:28.539Z,26.33
2022-07-26T08:37:16.034Z,26.67
2022-07-26T08:39:44.229Z,26.61
2022-07-26T08:42:16.444Z,26.52
2022-07-26T08:44:48.069Z,26.48
2022-07-26T08:47:18.196Z,26.37
2022-07-26T08:50:06.072Z,26.24
2022-07-26T08:52:33.644Z,25.97
2022-07-26T08:55:01.150Z,27.15
2022-07-26T08:57:30.339Z,26.98
2022-07-26T09:00:20.961Z,27.03
2022-07-26T09:02:49.506Z,26.17
2022-07-26T09:05:27.676Z,25.74
2022-07-26T09:07:56.210Z,25.46
2022-07-26T09:10:24.533Z,25.77
2022-07-26T09:12:57.297Z,24.54
2022-07-26T09:15:28.846Z,25.07
2022-07-26T09:17:58.354Z,25.59
2022-07-26T09:20:31.392Z,25.62
2022-07-26T09:23:04.596Z,25.22
2022-07-26T09:25:37.518Z,25.31
2022-07-26T09:28:21.278Z,25.47
2022-07-26T09:30:54.237Z,25.08
2022-07-26T09:33:22.005Z,24.85
2022-07-26T09:36:07.298Z,24.61
2022-07-26T09:38:41.936Z,25.34
2022-07-26T09:41:28.779Z,24.97
2022-07-26T09:44:00.393Z,25.39
2022-07-26T09:46:33.266Z,25.39
2022-07-26T09:49:20.883Z,25.52
2022-07-26T09:51:50.686Z,25.19
2022-07-26T09:54:37.253Z,25.60
2022-07-26T09:57:04.887Z,25.52
2022-07-26T09:59:33.648Z,25.59
2022-07-26T10:02:01.595Z,25.36
2022-07-26T10:04:29.289Z,25.45
2022-07-26T10:07:00.669Z,25.67
2022-07-26T10:09:35.078Z,26.17
2022-07-26T10:12:07.440Z,26.40
2022-07-26T10:14:35.373Z,26.44
2022-07-26T10:17:31.307Z,26.94
2022-07-26T10:20:17.043Z,27.21
2022-07-26T10:22:46.778Z,27.52
2022-07-26T10:25:17.556Z,27.84
2022-07-26T10:27:47.128Z,28.35
2022-07-26T10:30:20.639Z,28.57
2022-07-26T10:33:00.296Z,28.43
2022-07-26T10:35:34.707Z,28.16
2022-07-26T10:38:10.739Z,28.25
2022-07-26T10:40:55.529Z,27.94
2022-07-26T10:43:40.042Z,27.85
2022-07-26T10:46:20.756Z,27.72
2022-07-26T10:49:09.302Z,27.81
2022-07-26T10:51:39.610Z,27.65
2022-07-26T10:54:13.491Z,27.50
2022-07-26T10:56:41.684Z,27.63
2022-07-26T10:59:09.272Z,27.44
2022-07-26T11:01:42.812Z,27.74
2022-07-26T11:04:20.565Z,28.61
2022-07-26T11:06:49.346Z,28.92
2022-07-26T11:09:19.173Z,29.07
2022-07-26T11:11:49.129Z,29.60
2022-07-26T11:14:18.392Z,29.32
2022-07-26T11:16:48.707Z,29.29
2022-07-26T11:19:25.487Z,30.18
2022-07-26T11:21:59.292Z,29.85
2022-07-26T11:24:27.859Z,29.99
2022-07-26T11:26:55.816Z,30.07
2022-07-26T11:29:38.546Z,30.30
2022-07-26T11:32:25.558Z,29.13
2022-07-26T11:35:01.191Z,28.20
2022-07-26T11:37:31.298Z,28.01
2022-07-26T11:39:59.031Z,27.38
2022-07-26T11:42:26.595Z,27.46
2022-07-26T11:44:54.345Z,26.90
2022-07-26T11:47:26.407Z,27.22
2022-07-26T11:50:14.242Z,27.25
2022-07-26T11:52:42.806Z,27.23
2022-07-26T11:55:11.283Z,27.21
2022-07-26T11:57:40.074Z,26.65
2022-07-26T12:00:08.426Z,27.16
2022-07-26T12:02:41.812Z,27.50
2022-07-26T12:05:16.560Z,27.40
2022-07-26T12:07:56.279Z,27.66
2022-07-26T12:10:24.452Z,27.59
2022-07-26T12:13:10.561Z,26.77
2022-07-26T12:15:53.032Z,27.55
2022-07-26T12:18:31.721Z,27.13
2022-07-26T12:21:08.679Z,27.17
2022-07-26T12:23:46.634Z,27.91
2022-07-26T12:26:29.270Z,28.02
2022-07-26T12:28:58.021Z,27.91
2022-07-26T12:31:31.359Z,27.75
2022-07-26T12:33:59.762Z,28.03
2022-07-26T12:36:29.775Z,28.28
2022-07-26T12:39:01.465Z,28.14
2022-07-26T12:41:38.704Z,28.71
2022-07-26T12:44:09.443Z,28.82
2022-07-26T12:46:37.489Z,29.34
2022-07-26T12:49:05.901Z,29.12
2022-07-26T12:51:34.331Z,29.09
2022-07-26T12:54:02.235Z,28.84
2022-07-26T12:56:29.940Z,28.70
2022-07-26T12:59:01.731Z,29.03
2022-07-26T13:01:31.819Z,28.68
2022-07-26T13:04:01.068Z,28.83
2022-07-26T13:06:28.952Z,28.48
2022-07-26T13:08:56.839Z,28.08
2022-07-26T13:11:25.372Z,27.14
2022-07-26T13:13:53.223Z,27.32
2022-07-26T13:16:20.796Z,27.83
2022-07-26T13:18:48.402Z,26.98
2022-07-26T13:21:16.160Z,27.00
2022-07-26T13:23:43.847Z,27.07
2022-07-26T13:26:11.665Z,26.93
2022-07-26T13:28:41.238Z,27.00
2022-07-26T13:31:10.110Z,27.02
2022-07-26T13:33:39.598Z,27.57
2022-07-26T13:36:07.446Z,27.56
2022-07-26T13:38:35.641Z,27.34
2022-07-26T13:41:03.978Z,28.05
2022-07-26T13:43:31.824Z,27.93
2022-07-26T13:45:59.533Z,28.48
2022-07-26T13:48:27.503Z,28.81
2022-07-26T13:50:55.865Z,29.14
2022-07-26T13:53:24.339Z,29.12
2022-07-26T13:55:52.441Z,29.69
2022-07-26T13:58:21.946Z,29.64
2022-07-26T14:00:51.318Z,30.05
2022-07-26T14:03:19.167Z,30.38
2022-07-26T14:05:46.845Z,30.59
2022-07-26T14:08:14.513Z,30.56
2022-07-26T14:10:42.418Z,30.80
2022-07-26T14:13:10.249Z,30.51
2022-07-26T14:15:37.930Z,30.69
2022-07-26T14:18:05.842Z,30.97
2022-07-26T14:20:33.451Z,31.03
2022-07-26T14:23:01.121Z,31.43
2022-07-26T14:25:29.169Z,31.27
2022-07-26T14:28:00.265Z,31.16
2022-07-26T14:30:27.888Z,31.21
2022-07-26T14:32:55.496Z,31.15
2022-07-26T14:35:23.184Z,31.54
2022-07-26T14:37:50.916Z,31.50
2022-07-26T14:40:18.729Z,31.49
2022-07-26T14:42:46.812Z,32.08
2022-07-26T14:45:15.283Z,32.37
2022-07-26T14:47:43.418Z,32.05
2022-07-26T14:50:12.756Z,32.14
2022-07-26T14:52:43.302Z,32.63
2022-07-26T14:55:11.607Z,32.79
2022-07-26T14:57:40.438Z,32.93
2022-07-26T15:00:11.254Z,32.84
2022-07-26T15:02:43.801Z,33.13
2022-07-26T15:05:13.203Z,32.87
2022-07-26T15:07:42.254Z,33.00
2022-07-26T15:10:11.899Z,33.32
2022-07-26T15:12:40.055Z,33.13
2022-07-26T15:15:08.957Z,33.33
2022-07-26T15:17:36.995Z,33.48
2022-07-26T15:20:05.560Z,33.58
2022-07-26T15:22:33.270Z,33.95
2022-07-26T15:25:00.884Z,34.87
2022-07-26T15:27:31.506Z,35.06
2022-07-26T15:30:04.313Z,35.64
2022-07-26T15:32:35.299Z,35.79
2022-07-26T15:35:03.400Z,36.23
2022-07-26T15:37:30.969Z,36.43
2022-07-26T15:39:58.831Z,36.39
2022-07-26T15:42:26.636Z,36.97
2022-07-26T15:44:55.780Z,37.37
2022-07-26T15:47:53.188Z,37.04
2022-07-26T15:50:14.424Z,37.17
2022-07-26T15:52:45.310Z,37.95
2022-07-26T15:55:14.389Z,38.22
2022-07-26T15:57:42.172Z,38.77
2022-07-26T16:00:12.152Z,38.52
2022-07-26T16:02:41.582Z,39.05
2022-07-26T16:05:10.605Z,38.87
2022-07-26T16:07:41.766Z,38.90
2022-07-26T16:10:12.569Z,39.64
2022-07-26T16:12:41.988Z,39.26
2022-07-26T16:15:11.115Z,39.93
2022-07-26T16:17:39.182Z,39.75
2022-07-26T16:20:07.844Z,39.75
2022-07-26T16:22:36.117Z,40.28
2022-07-26T16:25:06.161Z,40.09
2022-07-26T16:27:33.720Z,40.21
2022-07-26T16:30:01.305Z,40.28
2022-07-26T16:32:31.376Z,40.60
2022-07-26T16:34:59.030Z,40.97
2022-07-26T16:37:26.575Z,41.12
2022-07-26T16:39:55.886Z,41.19
2022-07-26T16:42:23.832Z,41.65
2022-07-26T16:44:51.602Z,41.73
2022-07-26T16:47:19.156Z,41.74
2022-07-26T16:49:46.839Z,41.84
2022-07-26T16:52:14.644Z,41.86
2022-07-26T16:54:43.022Z,42.27
2022-07-26T16:57:11.179Z,42.41
2022-07-26T16:59:38.834Z,42.50
2022-07-26T17:02:06.651Z,42.79
2022-07-26T17:04:41.442Z,43.09
2022-07-26T17:07:24.544Z,43.38
2022-07-26T17:09:55.686Z,43.07
2022-07-26T17:12:23.943Z,43.34
2022-07-26T17:14:52.832Z,43.36
2022-07-26T17:17:20.537Z,43.30
2022-07-26T17:19:48.191Z,43.72
2022-07-26T17:22:17.012Z,43.58
2022-07-26T17:24:44.648Z,43.59
2022-07-26T17:27:12.351Z,43.92
2022-07-26T17:29:40.118Z,43.64
2022-07-26T17:32:09.043Z,44.24
2022-07-26T17:34:37.503Z,43.88
2022-07-26T17:37:07.057Z,44.47
2022-07-26T17:39:51.908Z,44.38
2022-07-26T17:42:20.873Z,44.42
2022-07-26T17:44:48.815Z,44.75
2022-07-26T17:47:28.471Z,44.69
2022-07-26T17:50:37.691Z,45.13
2022-07-26T17:52:51.286Z,45.83
2022-07-26T17:55:19.867Z,45.96
2022-07-26T17:57:50.175Z,45.98
2022-07-26T18:00:19.699Z,45.90
2022-07-26T18:02:48.100Z,46.17
2022-07-26T18:05:16.878Z,46.03
2022-07-26T18:07:44.526Z,46.37
2022-07-26T18:10:12.337Z,46.46
2022-07-26T18:12:39.956Z,46.72
2022-07-26T18:15:08.320Z,46.63
2022-07-26T18:17:38.523Z,46.75
2022-07-26T18:20:12.746Z,47.44
2022-07-26T18:22:40.760Z,47.30
2022-07-26T18:25:08.793Z,47.03
2022-07-26T18:27:36.424Z,47.30
2022-07-26T18:30:05.679Z,47.74
2022-07-26T18:32:34.428Z,47.57
2022-07-26T18:35:01.985Z,47.64
2022-07-26T18:37:30.534Z,47.79
2022-07-26T18:39:59.912Z,47.63
2022-07-26T18:42:27.594Z,47.87
2022-07-26T18:44:55.159Z,47.69
2022-07-26T18:47:23.238Z,47.98
2022-07-26T18:49:51.403Z,48.34
2022-07-26T18:52:28.640Z,48.48
2022-07-26T18:55:02.719Z,48.21
2022-07-26T18:57:35.088Z,48.94
2022-07-26T19:00:05.812Z,48.46
2022-07-26T19:02:33.505Z,48.66
2022-07-26T19:05:01.176Z,48.87
2022-07-26T19:07:28.908Z,49.00
2022-07-26T19:09:58.565Z,49.19
2022-07-26T19:12:27.808Z,49.29
2022-07-26T19:15:00.223Z,48.99
2022-07-26T19:17:30.968Z,49.41
2022-07-26T19:20:00.949Z,49.58
2022-07-26T19:22:30.607Z,49.52
2022-07-26T19:24:58.319Z,49.56
2022-07-26T19:27:26.368Z,49.59
2022-07-26T19:29:54.933Z,49.72
2022-07-26T19:32:22.485Z,50.18
2022-07-26T19:34:50.480Z,49.94
2022-07-26T19:37:22.917Z,50.50
2022-07-26T19:39:52.460Z,50.56
2022-07-26T19:42:20.329Z,50.71
2022-07-26T19:44:48.461Z,51.07
2022-07-26T19:47:16.029Z,51.01
2022-07-26T19:49:43.862Z,51.23
2022-07-26T19:52:11.997Z,51.39
2022-07-26T19:54:40.586Z,51.70
2022-07-26T19:57:08.731Z,51.89
2022-07-26T19:59:36.374Z,52.03
2022-07-26T20:02:04.222Z,52.06
2022-07-26T20:04:31.985Z,52.18
2022-07-26T20:07:00.964Z,52.34
2022-07-26T20:09:29.992Z,52.23
2022-07-26T20:11:58.317Z,52.73
2022-07-26T20:14:26.478Z,53.05
2022-07-26T20:16:57.126Z,53.32
2022-07-26T20:19:27.039Z,53.47
2022-07-26T20:21:55.019Z,53.75
2022-07-26T20:24:22.710Z,54.26
2022-07-26T20:26:50.355Z,54.54
2022-07-26T20:29:17.930Z,54.97
2022-07-26T20:31:45.946Z,55.19
2022-07-26T20:34:13.622Z,55.38
2022-07-26T20:36:41.399Z,55.77
2022-07-26T20:39:09.691Z,56.10
2022-07-26T20:41:37.652Z,57.13
2022-07-26T20:44:07.038Z,57.48
2022-07-26T20:46:40.179Z,57.66
2022-07-26T20:49:09.442Z,58.02
2022-07-26T20:51:37.784Z,58.51
2022-07-26T20:54:05.499Z,58.57
2022-07-26T20:56:33.407Z,58.91
2022-07-26T20:59:02.503Z,58.89
2022-07-26T21:01:31.636Z,59.01
2022-07-26T21:03:59.857Z,59.00
2022-07-26T21:06:29.506Z,59.08
2022-07-26T21:08:58.046Z,59.40
2022-07-26T21:11:26.060Z,60.29
2022-07-26T21:14:49.667Z,61.20
2022-07-26T21:18:31.407Z,60.71
2022-07-26T21:22:13.342Z,60.99
2022-07-26T21:26:00.389Z,61.18
2022-07-26T21:29:42.567Z,60.84
2022-07-26T21:33:26.271Z,61.35
2022-07-26T21:37:08.514Z,60.89
2022-07-26T21:40:50.430Z,61.02
2022-07-26T21:44:32.309Z,61.02
2022-07-26T21:48:14.390Z,62.74
2022-07-26T21:52:00.134Z,62.04
2022-07-26T21:55:41.695Z,62.14
2022-07-26T21:59:23.340Z,62.01
2022-07-26T22:03:05.237Z,62.13
2022-07-26T22:06:47.539Z,62.42
2022-07-26T22:10:29.491Z,62.88
2022-07-26T22:14:11.468Z,62.81
2022-07-26T22:17:53.409Z,63.21
2022-07-26T22:20:39.917Z,63.27
2022-07-26T22:23:12.776Z,63.78
2022-07-26T22:25:40.576Z,63.73
2022-07-26T22:28:08.956Z,63.95
2022-07-26T22:30:36.938Z,64.47
2022-07-26T22:33:07.844Z,64.78
2022-07-26T22:35:36.800Z,65.01
2022-07-26T22:38:07.059Z,65.23
2022-07-26T22:40:34.814Z,65.80
2022-07-26T22:43:02.761Z,65.77
2022-07-26T22:45:31.071Z,66.00
2022-07-26T22:47:58.674Z,66.20
2022-07-26T22:50:26.208Z,66.31
2022-07-26T22:52:53.835Z,66.12
2022-07-26T22:55:21.838Z,66.50
2022-07-26T22:57:49.577Z,66.19
2022-07-26T23:00:19.138Z,66.44
2022-07-26T23:02:48.324Z,66.25
2022-07-26T23:05:16.615Z,66.31
2022-07-26T23:07:47.181Z,66.14
2022-07-26T23:10:17.060Z,66.00
2022-07-26T23:12:45.449Z,66.44
2022-07-26T23:15:13.539Z,66.87
2022-07-26T23:17:41.365Z,66.78
2022-07-26T23:20:10.405Z,66.48
2022-07-26T23:22:38.781Z,66.81
2022-07-26T23:25:06.617Z,66.79
2022-07-26T23:27:34.130Z,66.95
2022-07-26T23:30:01.671Z,67.01
2022-07-26T23:32:30.890Z,67.35
2022-07-26T23:34:58.307Z,67.25
2022-07-26T23:37:25.760Z,67.79
2022-07-26T23:39:53.251Z,67.51
2022-07-26T23:42:20.755Z,67.68
2022-07-26T23:44:48.240Z,67.43
2022-07-26T23:47:15.722Z,67.34
2022-07-26T23:49:43.209Z,67.40
2022-07-26T23:52:10.657Z,67.65
2022-07-26T23:54:38.045Z,67.80
2022-07-26T23:57:05.520Z,67.62
2022-07-26T23:59:32.933Z,67.46
